sensor_id;sensor_type;location;lat;lon;timestamp;temperature;humidity
37050;DHT22;22958;51.232;6.826;2024-03-23T00:55:54;7.30;99.90
37050;DHT22;22958;51.232;6.826;2024-03-23T00:58:20;7.20;99.90
37050;DHT22;22958;51.232;6.826;2024-03-23T01:00:45;7.20;99.90
37050;DHT22;22958;51.232;6.826;2024-03-23T01:03:11;7.20;99.90
37050;DHT22;22958;51.232;6.826;2024-03-23T01:05:36;7.30;99.90
37050;DHT22;22958;51.232;6.826;2024-03-23T01:08:02;7.30;99.90
37050;DHT22;22958;51.232;6.826;2024-03-23T01:10:27;7.20;99.90
37050;DHT22;22958;51.232;6.826;2024-03-23T01:12:53;7.30;99.90
37050;DHT22;22958;51.232;6.826;2024-03-23T01:15:18;7.30;99.90
37050;DHT22;22958;51.232;6.826;2024-03-23T01:17:44;7.10;99.90
37050;DHT22;22958;51.232;6.826;2024-03-23T01:20:09;7.10;99.90
37050;DHT22;22958;51.232;6.826;2024-03-23T01:22:35;7.10;99.90
37050;DHT22;22958;51.232;6.826;2024-03-23T01:25:01;7.10;99.90
37050;DHT22;22958;51.232;6.826;2024-03-23T01:27:26;7.00;99.90
37050;DHT22;22958;51.232;6.826;2024-03-23T01:29:52;7.00;99.90
37050;DHT22;22958;51.232;6.826;2024-03-23T01:32:18;6.90;99.90
37050;DHT22;22958;51.232;6.826;2024-03-23T01:34:44;6.80;99.90
37050;DHT22;22958;51.232;6.826;2024-03-23T01:37:09;6.70;99.90
37050;DHT22;22958;51.232;6.826;2024-03-23T01:39:35;6.60;99.90
37050;DHT22;22958;51.232;6.826;2024-03-23T01:42:00;6.60;99.90
37050;DHT22;22958;51.232;6.826;2024-03-23T01:44:26;6.60;99.90
37050;DHT22;22958;51.232;6.826;2024-03-23T01:46:51;6.50;99.90
37050;DHT22;22958;51.232;6.826;2024-03-23T01:49:17;6.50;99.90
37050;DHT22;22958;51.232;6.826;2024-03-23T01:51:43;6.50;99.90
37050;DHT22;22958;51.232;6.826;2024-03-23T01:54:09;6.50;99.90
37050;DHT22;22958;51.232;6.826;2024-03-23T01:56:35;6.50;99.90
37050;DHT22;22958;51.232;6.826;2024-03-23T01:59:10;6.50;99.90
37050;DHT22;22958;51.232;6.826;2024-03-23T02:01:35;6.50;99.90
37050;DHT22;22958;51.232;6.826;2024-03-23T02:04:04;6.40;99.90
37050;DHT22;22958;51.232;6.826;2024-03-23T02:06:30;6.40;99.90
37050;DHT22;22958;51.232;6.826;2024-03-23T02:08:56;6.40;99.90
37050;DHT22;22958;51.232;6.826;2024-03-23T02:11:22;6.40;99.90
37050;DHT22;22958;51.232;6.826;2024-03-23T02:13:47;6.40;99.90
37050;DHT22;22958;51.232;6.826;2024-03-23T02:16:13;6.50;99.90
37050;DHT22;22958;51.232;6.826;2024-03-23T02:18:39;6.50;99.90
37050;DHT22;22958;51.232;6.826;2024-03-23T02:21:05;6.50;99.90
37050;DHT22;22958;51.232;6.826;2024-03-23T02:23:30;6.60;99.90
37050;DHT22;22958;51.232;6.826;2024-03-23T02:25:56;6.70;99.90
37050;DHT22;22958;51.232;6.826;2024-03-23T02:28:21;6.60;99.90
37050;DHT22;22958;51.232;6.826;2024-03-23T02:30:49;6.60;99.90
37050;DHT22;22958;51.232;6.826;2024-03-23T02:33:14;6.60;99.90
37050;DHT22;22958;51.232;6.826;2024-03-23T02:35:40;6.70;99.90
37050;DHT22;22958;51.232;6.826;2024-03-23T02:38:05;6.60;99.90
37050;DHT22;22958;51.232;6.826;2024-03-23T02:40:31;6.50;99.90
37050;DHT22;22958;51.232;6.826;2024-03-23T02:42:56;6.60;99.90
37050;DHT22;22958;51.232;6.826;2024-03-23T02:45:22;6.60;99.90
37050;DHT22;22958;51.232;6.826;2024-03-23T02:47:47;6.60;99.90
37050;DHT22;22958;51.232;6.826;2024-03-23T02:50:20;6.50;99.90
37050;DHT22;22958;51.232;6.826;2024-03-23T02:52:46;6.60;99.90
37050;DHT22;22958;51.232;6.826;2024-03-23T02:55:11;6.60;99.90
37050;DHT22;22958;51.232;6.826;2024-03-23T02:57:37;6.50;99.90
37050;DHT22;22958;51.232;6.826;2024-03-23T03:00:03;6.50;99.90
37050;DHT22;22958;51.232;6.826;2024-03-23T03:02:29;6.60;99.90
37050;DHT22;22958;51.232;6.826;2024-03-23T03:04:54;6.60;99.90
37050;DHT22;22958;51.232;6.826;2024-03-23T03:07:20;6.60;99.90
37050;DHT22;22958;51.232;6.826;2024-03-23T03:09:45;6.60;99.90
37050;DHT22;22958;51.232;6.826;2024-03-23T03:12:11;6.60;99.90
37050;DHT22;22958;51.232;6.826;2024-03-23T03:14:37;6.60;99.90
37050;DHT22;22958;51.232;6.826;2024-03-23T03:17:02;6.70;99.90
37050;DHT22;22958;51.232;6.826;2024-03-23T03:19:28;6.60;99.90
37050;DHT22;22958;51.232;6.826;2024-03-23T03:21:54;6.60;99.90
37050;DHT22;22958;51.232;6.826;2024-03-23T03:24:19;6.60;99.90
37050;DHT22;22958;51.232;6.826;2024-03-23T03:26:45;6.50;99.90
37050;DHT22;22958;51.232;6.826;2024-03-23T03:29:10;6.50;99.90
37050;DHT22;22958;51.232;6.826;2024-03-23T03:31:37;6.50;99.90
37050;DHT22;22958;51.232;6.826;2024-03-23T03:34:03;6.50;99.90
37050;DHT22;22958;51.232;6.826;2024-03-23T03:36:28;6.50;99.90
37050;DHT22;22958;51.232;6.826;2024-03-23T03:38:54;6.50;99.90
37050;DHT22;22958;51.232;6.826;2024-03-23T03:41:19;6.50;99.90
37050;DHT22;22958;51.232;6.826;2024-03-23T03:43:45;6.50;99.90
37050;DHT22;22958;51.232;6.826;2024-03-23T03:46:11;6.50;99.90
37050;DHT22;22958;51.232;6.826;2024-03-23T03:48:37;6.50;99.90
37050;DHT22;22958;51.232;6.826;2024-03-23T03:51:02;6.50;99.90
37050;DHT22;22958;51.232;6.826;2024-03-23T03:53:28;6.50;99.90
37050;DHT22;22958;51.232;6.826;2024-03-23T03:55:54;6.50;99.90
37050;DHT22;22958;51.232;6.826;2024-03-23T03:58:19;6.50;99.90
37050;DHT22;22958;51.232;6.826;2024-03-23T04:00:45;6.60;99.90
37050;DHT22;22958;51.232;6.826;2024-03-23T04:03:10;6.60;99.90
37050;DHT22;22958;51.232;6.826;2024-03-23T04:05:36;6.60;99.90
37050;DHT22;22958;51.232;6.826;2024-03-23T04:08:01;6.60;99.90
37050;DHT22;22958;51.232;6.826;2024-03-23T04:10:27;6.60;99.90
37050;DHT22;22958;51.232;6.826;2024-03-23T04:12:52;6.50;99.90
37050;DHT22;22958;51.232;6.826;2024-03-23T04:15:19;6.50;99.90
37050;DHT22;22958;51.232;6.826;2024-03-23T04:17:45;6.50;99.90
37050;DHT22;22958;51.232;6.826;2024-03-23T04:20:11;6.60;99.90
37050;DHT22;22958;51.232;6.826;2024-03-23T04:22:39;6.50;99.90
37050;DHT22;22958;51.232;6.826;2024-03-23T04:25:04;6.60;99.90
37050;DHT22;22958;51.232;6.826;2024-03-23T04:27:34;6.60;99.90
37050;DHT22;22958;51.232;6.826;2024-03-23T04:30:00;6.50;99.90
37050;DHT22;22958;51.232;6.826;2024-03-23T04:32:30;6.50;99.90
37050;DHT22;22958;51.232;6.826;2024-03-23T04:34:55;6.50;99.90
37050;DHT22;22958;51.232;6.826;2024-03-23T04:37:21;6.60;99.90
37050;DHT22;22958;51.232;6.826;2024-03-23T04:39:47;6.60;99.90
37050;DHT22;22958;51.232;6.826;2024-03-23T04:42:17;6.60;99.90
37050;DHT22;22958;51.232;6.826;2024-03-23T04:44:43;6.60;99.90
37050;DHT22;22958;51.232;6.826;2024-03-23T04:47:09;6.60;99.90
37050;DHT22;22958;51.232;6.826;2024-03-23T04:49:35;6.50;99.90
37050;DHT22;22958;51.232;6.826;2024-03-23T04:52:03;6.50;99.90
37050;DHT22;22958;51.232;6.826;2024-03-23T04:54:29;6.50;99.90
37050;DHT22;22958;51.232;6.826;2024-03-23T04:56:54;6.40;99.90
37050;DHT22;22958;51.232;6.826;2024-03-23T04:59:20;6.40;99.90
37050;DHT22;22958;51.232;6.826;2024-03-23T05:01:45;6.40;99.90
37050;DHT22;22958;51.232;6.826;2024-03-23T05:04:11;6.40;99.90
37050;DHT22;22958;51.232;6.826;2024-03-23T05:06:36;6.40;99.90
37050;DHT22;22958;51.232;6.826;2024-03-23T05:09:02;6.40;99.90
37050;DHT22;22958;51.232;6.826;2024-03-23T05:11:40;6.40;99.90
37050;DHT22;22958;51.232;6.826;2024-03-23T05:14:05;6.40;99.90
37050;DHT22;22958;51.232;6.826;2024-03-23T05:16:31;6.40;99.90
37050;DHT22;22958;51.232;6.826;2024-03-23T05:18:56;6.40;99.90
37050;DHT22;22958;51.232;6.826;2024-03-23T05:21:22;6.40;99.90
37050;DHT22;22958;51.232;6.826;2024-03-23T05:23:47;6.30;99.90
37050;DHT22;22958;51.232;6.826;2024-03-23T05:26:13;6.30;99.90
37050;DHT22;22958;51.232;6.826;2024-03-23T05:28:39;6.20;99.90
37050;DHT22;22958;51.232;6.826;2024-03-23T05:31:05;6.10;99.90
37050;DHT22;22958;51.232;6.826;2024-03-23T05:33:30;6.10;99.90
37050;DHT22;22958;51.232;6.826;2024-03-23T05:35:57;6.10;99.90
37050;DHT22;22958;51.232;6.826;2024-03-23T05:38:22;6.10;99.90
37050;DHT22;22958;51.232;6.826;2024-03-23T05:40:55;6.20;99.90
37050;DHT22;22958;51.232;6.826;2024-03-23T05:43:21;6.10;99.90
37050;DHT22;22958;51.232;6.826;2024-03-23T05:45:56;6.10;99.90
37050;DHT22;22958;51.232;6.826;2024-03-23T05:48:22;6.20;99.90
37050;DHT22;22958;51.232;6.826;2024-03-23T05:50:49;6.10;99.90
37050;DHT22;22958;51.232;6.826;2024-03-23T05:53:15;6.20;99.90
37050;DHT22;22958;51.232;6.826;2024-03-23T05:55:41;6.20;99.90
37050;DHT22;22958;51.232;6.826;2024-03-23T05:58:07;6.20;99.90
37050;DHT22;22958;51.232;6.826;2024-03-23T06:00:32;6.10;99.90
37050;DHT22;22958;51.232;6.826;2024-03-23T06:02:58;6.10;99.90
37050;DHT22;22958;51.232;6.826;2024-03-23T06:05:23;6.10;99.90
37050;DHT22;22958;51.232;6.826;2024-03-23T06:07:49;6.10;99.90
37050;DHT22;22958;51.232;6.826;2024-03-23T06:10:15;6.20;99.90
37050;DHT22;22958;51.232;6.826;2024-03-23T06:12:41;6.20;99.90
37050;DHT22;22958;51.232;6.826;2024-03-23T06:15:07;6.20;99.90
37050;DHT22;22958;51.232;6.826;2024-03-23T06:17:36;6.20;99.90
37050;DHT22;22958;51.232;6.826;2024-03-23T06:20:02;6.30;99.90
37050;DHT22;22958;51.232;6.826;2024-03-23T06:22:27;6.30;99.90
37050;DHT22;22958;51.232;6.826;2024-03-23T06:24:53;6.30;99.90
37050;DHT22;22958;51.232;6.826;2024-03-23T06:27:18;6.30;99.90
37050;DHT22;22958;51.232;6.826;2024-03-23T06:32:09;6.30;99.90
37050;DHT22;22958;51.232;6.826;2024-03-23T06:34:35;6.30;99.90
37050;DHT22;22958;51.232;6.826;2024-03-23T06:37:00;6.30;99.90
37050;DHT22;22958;51.232;6.826;2024-03-23T06:39:26;6.30;99.90
37050;DHT22;22958;51.232;6.826;2024-03-23T06:41:53;6.30;99.90
37050;DHT22;22958;51.232;6.826;2024-03-23T06:44:19;6.40;99.90
37050;DHT22;22958;51.232;6.826;2024-03-23T06:46:45;6.40;99.90
37050;DHT22;22958;51.232;6.826;2024-03-23T06:49:11;6.40;99.90
37050;DHT22;22958;51.232;6.826;2024-03-23T06:51:37;6.50;99.90
37050;DHT22;22958;51.232;6.826;2024-03-23T06:54:05;6.50;99.90
37050;DHT22;22958;51.232;6.826;2024-03-23T06:56:31;6.50;99.90
37050;DHT22;22958;51.232;6.826;2024-03-23T06:58:57;6.50;99.90
37050;DHT22;22958;51.232;6.826;2024-03-23T07:01:23;6.50;99.90
37050;DHT22;22958;51.232;6.826;2024-03-23T07:03:48;6.60;99.90
37050;DHT22;22958;51.232;6.826;2024-03-23T07:06:14;6.70;99.90
37050;DHT22;22958;51.232;6.826;2024-03-23T07:08:39;6.80;99.90
37050;DHT22;22958;51.232;6.826;2024-03-23T07:11:05;6.90;99.90
37050;DHT22;22958;51.232;6.826;2024-03-23T07:13:31;6.90;99.90
37050;DHT22;22958;51.232;6.826;2024-03-23T07:15:56;6.90;99.90
37050;DHT22;22958;51.232;6.826;2024-03-23T07:18:23;7.00;99.90
37050;DHT22;22958;51.232;6.826;2024-03-23T07:20:56;7.00;99.90
37050;DHT22;22958;51.232;6.826;2024-03-23T07:23:22;7.00;99.90
37050;DHT22;22958;51.232;6.826;2024-03-23T07:26:04;7.10;99.90
37050;DHT22;22958;51.232;6.826;2024-03-23T07:28:31;7.10;99.90
37050;DHT22;22958;51.232;6.826;2024-03-23T07:31:08;7.20;99.90
37050;DHT22;22958;51.232;6.826;2024-03-23T07:33:35;7.20;99.90
37050;DHT22;22958;51.232;6.826;2024-03-23T07:36:01;7.20;99.90
37050;DHT22;22958;51.232;6.826;2024-03-23T07:38:28;7.30;99.90
37050;DHT22;22958;51.232;6.826;2024-03-23T07:41:06;7.40;99.90
37050;DHT22;22958;51.232;6.826;2024-03-23T07:43:32;7.60;99.90
37050;DHT22;22958;51.232;6.826;2024-03-23T07:45:58;7.70;99.90
37050;DHT22;22958;51.232;6.826;2024-03-23T07:48:23;7.60;99.90
37050;DHT22;22958;51.232;6.826;2024-03-23T07:51:20;7.60;99.90
37050;DHT22;22958;51.232;6.826;2024-03-23T07:53:46;7.60;99.90
37050;DHT22;22958;51.232;6.826;2024-03-23T07:56:11;7.70;99.90
37050;DHT22;22958;51.232;6.826;2024-03-23T07:58:38;7.80;99.90
37050;DHT22;22958;51.232;6.826;2024-03-23T08:01:05;7.80;99.90
37050;DHT22;22958;51.232;6.826;2024-03-23T08:03:31;7.80;99.90
37050;DHT22;22958;51.232;6.826;2024-03-23T08:05:56;7.90;99.90
37050;DHT22;22958;51.232;6.826;2024-03-23T08:08:22;7.90;99.90
37050;DHT22;22958;51.232;6.826;2024-03-23T08:10:51;8.00;99.90
37050;DHT22;22958;51.232;6.826;2024-03-23T08:13:17;8.10;1.00
37050;DHT22;22958;51.232;6.826;2024-03-23T08:15:43;8.10;1.00
37050;DHT22;22958;51.232;6.826;2024-03-23T08:18:10;8.20;1.00
37050;DHT22;22958;51.232;6.826;2024-03-23T08:20:36;8.30;99.90
37050;DHT22;22958;51.232;6.826;2024-03-23T08:23:01;8.50;1.00
37050;DHT22;22958;51.232;6.826;2024-03-23T08:25:27;8.60;99.90
37050;DHT22;22958;51.232;6.826;2024-03-23T08:27:52;8.80;1.00
37050;DHT22;22958;51.232;6.826;2024-03-23T08:30:18;9.00;99.90
37050;DHT22;22958;51.232;6.826;2024-03-23T08:32:44;8.80;19.10
37050;DHT22;22958;51.232;6.826;2024-03-23T08:35:09;8.80;99.90
37050;DHT22;22958;51.232;6.826;2024-03-23T08:37:35;8.80;1.00
37050;DHT22;22958;51.232;6.826;2024-03-23T08:40:00;8.80;1.00
37050;DHT22;22958;51.232;6.826;2024-03-23T08:42:26;8.80;1.00
37050;DHT22;22958;51.232;6.826;2024-03-23T08:44:51;8.80;1.00
37050;DHT22;22958;51.232;6.826;2024-03-23T08:47:17;9.00;1.00
37050;DHT22;22958;51.232;6.826;2024-03-23T08:49:43;9.10;99.90
37050;DHT22;22958;51.232;6.826;2024-03-23T08:52:09;9.20;99.90
37050;DHT22;22958;51.232;6.826;2024-03-23T08:54:35;9.30;99.90
37050;DHT22;22958;51.232;6.826;2024-03-23T08:57:00;9.30;99.90
37050;DHT22;22958;51.232;6.826;2024-03-23T08:59:26;9.40;99.90
37050;DHT22;22958;51.232;6.826;2024-03-23T09:01:52;9.50;99.90
37050;DHT22;22958;51.232;6.826;2024-03-23T09:04:17;9.40;99.90
37050;DHT22;22958;51.232;6.826;2024-03-23T09:06:43;9.00;99.90
37050;DHT22;22958;51.232;6.826;2024-03-23T09:09:09;9.10;99.90
37050;DHT22;22958;51.232;6.826;2024-03-23T09:11:34;9.10;99.90
37050;DHT22;22958;51.232;6.826;2024-03-23T09:14:00;9.10;99.90
37050;DHT22;22958;51.232;6.826;2024-03-23T09:16:25;9.10;99.90
37050;DHT22;22958;51.232;6.826;2024-03-23T09:18:52;9.20;99.90
37050;DHT22;22958;51.232;6.826;2024-03-23T09:21:17;9.00;99.90
37050;DHT22;22958;51.232;6.826;2024-03-23T09:23:43;8.90;99.90
37050;DHT22;22958;51.232;6.826;2024-03-23T09:26:09;8.80;99.90
37050;DHT22;22958;51.232;6.826;2024-03-23T09:28:35;8.90;99.90
37050;DHT22;22958;51.232;6.826;2024-03-23T09:31:04;8.90;99.90
37050;DHT22;22958;51.232;6.826;2024-03-23T09:33:30;8.90;99.90
37050;DHT22;22958;51.232;6.826;2024-03-23T09:35:55;8.90;99.90
37050;DHT22;22958;51.232;6.826;2024-03-23T09:38:22;8.90;99.90
37050;DHT22;22958;51.232;6.826;2024-03-23T09:40:52;8.80;99.90
37050;DHT22;22958;51.232;6.826;2024-03-23T09:43:19;8.90;99.90
37050;DHT22;22958;51.232;6.826;2024-03-23T09:45:45;9.00;99.90
37050;DHT22;22958;51.232;6.826;2024-03-23T09:48:11;9.20;99.90
37050;DHT22;22958;51.232;6.826;2024-03-23T09:50:41;9.40;99.90
37050;DHT22;22958;51.232;6.826;2024-03-23T09:53:07;9.50;99.90
37050;DHT22;22958;51.232;6.826;2024-03-23T09:55:33;9.30;99.90
37050;DHT22;22958;51.232;6.826;2024-03-23T09:58:00;9.20;99.90
37050;DHT22;22958;51.232;6.826;2024-03-23T10:00:26;9.00;99.90
37050;DHT22;22958;51.232;6.826;2024-03-23T10:02:51;8.80;99.90
37050;DHT22;22958;51.232;6.826;2024-03-23T10:05:24;8.80;99.90
37050;DHT22;22958;51.232;6.826;2024-03-23T10:07:52;8.90;99.90
37050;DHT22;22958;51.232;6.826;2024-03-23T10:10:18;8.90;99.90
37050;DHT22;22958;51.232;6.826;2024-03-23T10:12:47;8.90;99.90
37050;DHT22;22958;51.232;6.826;2024-03-23T10:15:24;9.30;99.90
37050;DHT22;22958;51.232;6.826;2024-03-23T10:17:50;9.30;99.90
37050;DHT22;22958;51.232;6.826;2024-03-23T10:20:22;9.30;96.10
37050;DHT22;22958;51.232;6.826;2024-03-23T10:22:51;9.20;95.40
37050;DHT22;22958;51.232;6.826;2024-03-23T10:25:18;9.30;83.00
37050;DHT22;22958;51.232;6.826;2024-03-23T10:28:00;9.40;65.60
37050;DHT22;22958;51.232;6.826;2024-03-23T10:30:29;9.40;50.60
37050;DHT22;22958;51.232;6.826;2024-03-23T10:33:07;9.30;50.60
37050;DHT22;22958;51.232;6.826;2024-03-23T10:35:33;8.60;45.40
37050;DHT22;22958;51.232;6.826;2024-03-23T10:38:00;7.60;99.90
37050;DHT22;22958;51.232;6.826;2024-03-23T10:40:26;6.70;99.90
37050;DHT22;22958;51.232;6.826;2024-03-23T10:42:52;6.00;1.00
37050;DHT22;22958;51.232;6.826;2024-03-23T10:45:21;5.40;99.90
37050;DHT22;22958;51.232;6.826;2024-03-23T10:47:46;5.30;99.90
37050;DHT22;22958;51.232;6.826;2024-03-23T10:50:12;5.40;1.00
37050;DHT22;22958;51.232;6.826;2024-03-23T10:52:38;5.50;99.90
37050;DHT22;22958;51.232;6.826;2024-03-23T10:55:05;5.60;1.00
37050;DHT22;22958;51.232;6.826;2024-03-23T10:57:37;5.70;1.00
37050;DHT22;22958;51.232;6.826;2024-03-23T11:00:04;5.80;99.90
37050;DHT22;22958;51.232;6.826;2024-03-23T11:02:30;5.90;1.00
37050;DHT22;22958;51.232;6.826;2024-03-23T11:04:56;6.00;82.90
37050;DHT22;22958;51.232;6.826;2024-03-23T11:07:31;6.10;1.00
37050;DHT22;22958;51.232;6.826;2024-03-23T11:09:58;6.20;99.90
37050;DHT22;22958;51.232;6.826;2024-03-23T11:15:12;6.30;50.50
37050;DHT22;22958;51.232;6.826;2024-03-23T11:17:38;6.40;99.90
37050;DHT22;22958;51.232;6.826;2024-03-23T11:20:05;6.50;99.90
37050;DHT22;22958;51.232;6.826;2024-03-23T11:22:43;6.50;99.90
37050;DHT22;22958;51.232;6.826;2024-03-23T11:25:23;6.70;1.00
37050;DHT22;22958;51.232;6.826;2024-03-23T11:28:10;7.10;12.00
37050;DHT22;22958;51.232;6.826;2024-03-23T11:30:36;7.20;99.90
37050;DHT22;22958;51.232;6.826;2024-03-23T11:33:04;7.40;99.90
37050;DHT22;22958;51.232;6.826;2024-03-23T11:35:35;7.40;99.90
37050;DHT22;22958;51.232;6.826;2024-03-23T11:38:02;8.50;99.90
37050;DHT22;22958;51.232;6.826;2024-03-23T11:40:28;10.40;99.90
37050;DHT22;22958;51.232;6.826;2024-03-23T11:43:08;11.90;99.90
37050;DHT22;22958;51.232;6.826;2024-03-23T11:45:35;12.30;59.10
37050;DHT22;22958;51.232;6.826;2024-03-23T11:48:17;11.50;22.40
37050;DHT22;22958;51.232;6.826;2024-03-23T11:50:47;11.20;10.40
37050;DHT22;22958;51.232;6.826;2024-03-23T11:53:15;11.80;7.90
37050;DHT22;22958;51.232;6.826;2024-03-23T11:55:58;12.40;1.00
37050;DHT22;22958;51.232;6.826;2024-03-23T11:58:24;10.80;1.00
37050;DHT22;22958;51.232;6.826;2024-03-23T12:00:57;7.00;99.90
37050;DHT22;22958;51.232;6.826;2024-03-23T12:03:23;6.20;99.90
37050;DHT22;22958;51.232;6.826;2024-03-23T12:05:53;6.00;99.90
37050;DHT22;22958;51.232;6.826;2024-03-23T12:08:30;6.00;99.90
37050;DHT22;22958;51.232;6.826;2024-03-23T12:11:17;6.10;1.00
37050;DHT22;22958;51.232;6.826;2024-03-23T12:13:44;6.30;2.50
37050;DHT22;22958;51.232;6.826;2024-03-23T12:16:19;6.50;1.00
37050;DHT22;22958;51.232;6.826;2024-03-23T12:18:48;6.60;1.00
37050;DHT22;22958;51.232;6.826;2024-03-23T12:21:14;6.70;99.90
37050;DHT22;22958;51.232;6.826;2024-03-23T12:23:40;6.80;99.90
37050;DHT22;22958;51.232;6.826;2024-03-23T12:26:06;6.90;99.90
37050;DHT22;22958;51.232;6.826;2024-03-23T12:28:33;7.20;1.00
37050;DHT22;22958;51.232;6.826;2024-03-23T12:30:58;7.60;1.00
37050;DHT22;22958;51.232;6.826;2024-03-23T12:33:24;7.90;99.90
37050;DHT22;22958;51.232;6.826;2024-03-23T12:35:50;8.50;99.90
37050;DHT22;22958;51.232;6.826;2024-03-23T12:38:16;9.30;99.90
37050;DHT22;22958;51.232;6.826;2024-03-23T12:40:41;9.70;99.90
37050;DHT22;22958;51.232;6.826;2024-03-23T12:43:07;9.70;99.90
37050;DHT22;22958;51.232;6.826;2024-03-23T12:45:35;9.00;99.90
37050;DHT22;22958;51.232;6.826;2024-03-23T12:48:01;8.40;99.90
37050;DHT22;22958;51.232;6.826;2024-03-23T12:50:26;8.10;99.90
37050;DHT22;22958;51.232;6.826;2024-03-23T12:52:52;8.00;99.50
37050;DHT22;22958;51.232;6.826;2024-03-23T12:55:17;8.10;99.90
37050;DHT22;22958;51.232;6.826;2024-03-23T12:57:43;8.00;99.90
37050;DHT22;22958;51.232;6.826;2024-03-23T13:00:09;8.30;99.90
37050;DHT22;22958;51.232;6.826;2024-03-23T13:02:37;8.80;99.90
37050;DHT22;22958;51.232;6.826;2024-03-23T13:05:04;9.40;97.30
37050;DHT22;22958;51.232;6.826;2024-03-23T13:07:30;10.00;52.00
37050;DHT22;22958;51.232;6.826;2024-03-23T13:09:55;9.60;58.40
37050;DHT22;22958;51.232;6.826;2024-03-23T13:12:22;9.50;35.70
37050;DHT22;22958;51.232;6.826;2024-03-23T13:14:48;10.30;27.30
37050;DHT22;22958;51.232;6.826;2024-03-23T13:17:13;10.10;16.20
37050;DHT22;22958;51.232;6.826;2024-03-23T13:19:39;9.00;21.10
37050;DHT22;22958;51.232;6.826;2024-03-23T13:22:05;7.50;99.90
37050;DHT22;22958;51.232;6.826;2024-03-23T13:24:31;6.70;99.90
37050;DHT22;22958;51.232;6.826;2024-03-23T13:26:57;6.40;1.00
37050;DHT22;22958;51.232;6.826;2024-03-23T13:29:23;6.10;99.90
37050;DHT22;22958;51.232;6.826;2024-03-23T13:31:50;6.10;1.00
37050;DHT22;22958;51.232;6.826;2024-03-23T13:34:16;6.40;1.00
37050;DHT22;22958;51.232;6.826;2024-03-23T13:36:45;7.00;1.00
37050;DHT22;22958;51.232;6.826;2024-03-23T13:39:11;8.60;99.90
37050;DHT22;22958;51.232;6.826;2024-03-23T13:41:44;9.90;99.90
37050;DHT22;22958;51.232;6.826;2024-03-23T13:44:11;11.40;71.30
37050;DHT22;22958;51.232;6.826;2024-03-23T13:46:38;11.60;1.00
37050;DHT22;22958;51.232;6.826;2024-03-23T13:49:07;11.10;1.00
37050;DHT22;22958;51.232;6.826;2024-03-23T13:51:33;11.40;1.00
37050;DHT22;22958;51.232;6.826;2024-03-23T13:53:58;11.50;1.00
37050;DHT22;22958;51.232;6.826;2024-03-23T13:56:27;9.70;1.00
37050;DHT22;22958;51.232;6.826;2024-03-23T13:58:55;9.10;1.00
37050;DHT22;22958;51.232;6.826;2024-03-23T14:01:21;8.80;1.00
37050;DHT22;22958;51.232;6.826;2024-03-23T14:03:47;8.60;1.00
37050;DHT22;22958;51.232;6.826;2024-03-23T14:06:12;8.50;1.00
37050;DHT22;22958;51.232;6.826;2024-03-23T14:08:38;8.80;3.70
37050;DHT22;22958;51.232;6.826;2024-03-23T14:11:07;9.00;1.00
37050;DHT22;22958;51.232;6.826;2024-03-23T14:13:37;10.10;1.00
37050;DHT22;22958;51.232;6.826;2024-03-23T14:16:03;11.70;1.00
37050;DHT22;22958;51.232;6.826;2024-03-23T14:18:29;12.10;1.00
37050;DHT22;22958;51.232;6.826;2024-03-23T14:20:59;10.90;1.00
37050;DHT22;22958;51.232;6.826;2024-03-23T14:23:29;10.70;1.00
37050;DHT22;22958;51.232;6.826;2024-03-23T14:25:55;10.80;1.00
37050;DHT22;22958;51.232;6.826;2024-03-23T14:28:21;9.80;1.00
37050;DHT22;22958;51.232;6.826;2024-03-23T14:30:48;9.30;1.00
37050;DHT22;22958;51.232;6.826;2024-03-23T14:33:15;9.20;1.00
37050;DHT22;22958;51.232;6.826;2024-03-23T14:35:40;9.20;1.00
37050;DHT22;22958;51.232;6.826;2024-03-23T14:38:06;8.70;1.00
37050;DHT22;22958;51.232;6.826;2024-03-23T14:40:31;7.20;99.90
37050;DHT22;22958;51.232;6.826;2024-03-23T14:42:57;6.70;1.00
37050;DHT22;22958;51.232;6.826;2024-03-23T14:45:23;6.60;1.00
37050;DHT22;22958;51.232;6.826;2024-03-23T14:47:50;6.50;1.00
37050;DHT22;22958;51.232;6.826;2024-03-23T14:50:16;6.60;99.90
37050;DHT22;22958;51.232;6.826;2024-03-23T14:52:45;6.80;99.90
37050;DHT22;22958;51.232;6.826;2024-03-23T14:55:11;7.00;99.90
37050;DHT22;22958;51.232;6.826;2024-03-23T14:57:37;7.10;74.20
37050;DHT22;22958;51.232;6.826;2024-03-23T15:00:08;7.20;73.70
37050;DHT22;22958;51.232;6.826;2024-03-23T15:02:39;7.40;71.20
37050;DHT22;22958;51.232;6.826;2024-03-23T15:05:05;7.40;17.50
37050;DHT22;22958;51.232;6.826;2024-03-23T15:07:34;7.50;22.20
37050;DHT22;22958;51.232;6.826;2024-03-23T15:10:00;7.40;2.70
37050;DHT22;22958;51.232;6.826;2024-03-23T15:12:25;7.50;8.00
37050;DHT22;22958;51.232;6.826;2024-03-23T15:14:51;7.80;21.80
37050;DHT22;22958;51.232;6.826;2024-03-23T15:17:16;8.80;1.00
37050;DHT22;22958;51.232;6.826;2024-03-23T15:19:42;9.30;1.00
37050;DHT22;22958;51.232;6.826;2024-03-23T15:22:08;9.50;1.00
37050;DHT22;22958;51.232;6.826;2024-03-23T15:24:35;9.10;1.00
37050;DHT22;22958;51.232;6.826;2024-03-23T15:27:02;8.70;1.00
37050;DHT22;22958;51.232;6.826;2024-03-23T15:29:28;8.70;1.00
37050;DHT22;22958;51.232;6.826;2024-03-23T15:31:53;9.30;1.00
37050;DHT22;22958;51.232;6.826;2024-03-23T15:34:19;10.00;1.00
37050;DHT22;22958;51.232;6.826;2024-03-23T15:36:50;10.60;1.00
37050;DHT22;22958;51.232;6.826;2024-03-23T15:39:19;10.70;1.00
37050;DHT22;22958;51.232;6.826;2024-03-23T15:41:46;10.70;1.00
37050;DHT22;22958;51.232;6.826;2024-03-23T15:44:11;10.50;1.00
37050;DHT22;22958;51.232;6.826;2024-03-23T15:46:37;10.50;1.00
37050;DHT22;22958;51.232;6.826;2024-03-23T15:49:02;9.90;1.00
37050;DHT22;22958;51.232;6.826;2024-03-23T15:51:29;9.20;1.00
37050;DHT22;22958;51.232;6.826;2024-03-23T15:53:58;9.10;1.00
37050;DHT22;22958;51.232;6.826;2024-03-23T15:56:24;9.00;1.00
37050;DHT22;22958;51.232;6.826;2024-03-23T15:58:50;9.20;1.00
37050;DHT22;22958;51.232;6.826;2024-03-23T16:01:15;9.00;1.00
37050;DHT22;22958;51.232;6.826;2024-03-23T16:03:41;8.60;1.00
37050;DHT22;22958;51.232;6.826;2024-03-23T16:06:07;8.40;1.00
37050;DHT22;22958;51.232;6.826;2024-03-23T16:08:33;8.10;1.00
37050;DHT22;22958;51.232;6.826;2024-03-23T16:11:06;7.90;1.00
37050;DHT22;22958;51.232;6.826;2024-03-23T16:13:33;7.90;1.00
37050;DHT22;22958;51.232;6.826;2024-03-23T16:16:00;7.90;1.00
37050;DHT22;22958;51.232;6.826;2024-03-23T16:18:28;7.90;1.00
37050;DHT22;22958;51.232;6.826;2024-03-23T16:21:05;7.90;1.00
37050;DHT22;22958;51.232;6.826;2024-03-23T16:23:36;7.90;1.00
37050;DHT22;22958;51.232;6.826;2024-03-23T16:26:07;7.90;1.00
37050;DHT22;22958;51.232;6.826;2024-03-23T16:28:35;7.80;1.00
37050;DHT22;22958;51.232;6.826;2024-03-23T16:31:02;7.70;1.00
37050;DHT22;22958;51.232;6.826;2024-03-23T16:33:28;7.80;1.00
37050;DHT22;22958;51.232;6.826;2024-03-23T16:36:02;7.90;1.00
37050;DHT22;22958;51.232;6.826;2024-03-23T16:38:32;7.90;1.00
37050;DHT22;22958;51.232;6.826;2024-03-23T16:43:28;7.90;1.00
37050;DHT22;22958;51.232;6.826;2024-03-23T16:46:04;7.90;1.00
37050;DHT22;22958;51.232;6.826;2024-03-23T16:48:30;7.90;1.00
37050;DHT22;22958;51.232;6.826;2024-03-23T16:50:57;7.80;1.00